Aérodrome :
LOGIN :

S'inscrire | Disclaimer

   EN    FR    IT 

 










Légende :    VFR   VFR Marginal   IFR   IFR Intensif   IFR Très Intensif
Visi : 
Plafond : 
>= 8 km
>= 3000ft
5 à 8 km
1000 à 3000 ft
1500m à 5 km
500 à 1000 ft
800 à 1500m
200 à 500 ft
< 800m
< 200 ft
Symboles :   Orages  Brouillard  Fortes neiges  Fortes précipitations  Vent > 20 kt
SIGMETs :   Divers  Orages  Givrage  Turbulence  Onde Orograph.  Cendres Volcan.






- Altitude de l'aérodrome : 1079 ft


ETIK - Illesheim Air Base

DERNIER METAR :
  • 171911Z AUTO 24012KT 9999 -RA SCT045 BKN060 BKN080 11/08 A2982 RMK AO2 RAE1857DZB1857E1859RAB11 SLP102 $

METARs EXPIRÉS :
  • 171859Z AUTO 24009KT 9999 BKN045 BKN080 11/08 A2982 RMK AO2 RAE57DZB57E59 SLP102 $
  • 171831Z AUTO 25014G21KT 9999 -DZ BKN050 OVC070 12/07 A2981 RMK AO2 DZB31 SLP097 $
  • 171756Z AUTO 24012G20KT 9999 FEW031 12/07 A2980 RMK AO2 SLP094 T01160067 10151 20116 52012 $
  • 171656Z AUTO 25020G26KT 9999 SCT060 SCT110 12/06 A2979 RMK AO2 PK WND 25030/25 SLP090 T01240064 $

TAF TAF ETIK
Valide du 17 à 14h jusqu'au 18 à 20h UTC


171409Z 1714/1820 25015G25KT 6000 -SHRA BKN030 QNH2974INS
TEMPO 1714/1718 4800 -TSRA BKN030CB
BECMG 1723/1724 25012KT 6000 BR BKN010 QNH2987INS
BECMG 1808/1809 26015G25KT 8000 -SHRA BKN020 QNH2992INS
TEMPO 1813/1817 4800 -TSRA BKN020CB TX16/1812Z TN07/1803Z



MET'MAP, la Météo Aéronautique d'un coup d'oeil ! - Copyright ORBIFLY Décembre 2007 - Disclaimer

ORBIFLY MET'MAP TEAM :

Programmation & Développement : Alexandra Zaïnal
Sur une idée originale de : Baudouin d'Aumeries
Assistance à la programmation : Marc-Olivier Méhu
Soutien technique & logistique : Manuel Goepfert

Contact : metmap@orbifly.com




SOURCES & CREDITS :

   NOAA